Huvudsida
METAR-TAF:

METAR-TAF

Flygplatser :

Bagdads internationella flygplats

Bagdad, Irak

latitud: 33-15-45N, longitud: 44-14-04E, höjd: 35 m

Aktuellt väderrapport

Denna rapport gjordes för 15 minuter sedan, klockan 21:00 UTC
Vind 2 kt varierande vindriktning
Temperatur 8°C
Fuktighet 93%
Tryck 1020 hPa
Sikt: 0100 m
dimbankar

METAR: ORBI 142100Z VRB02KT 0150 0100 R33R/0150 BCFG NSC 08/07 Q1020 NOSIG

Tid: 00:15 (21:15 UTC)

Väderprognos

Denna rapport gjordes för 5 timmar och 15 minuter sedan, klockan 16:00 UTC
Prognos gäller från 14 kl. 18 UTC till 15 kl. 18 UTC
Vind 3 kt varierande vindriktning
Sikt: 2000 m
fuktdis
Blir
från 14 kl. 18 UTC till 14 kl. 20 UTC
Sikt: 0500 m
på en höjd av 200 ft
dimma
Blir
från 15 kl. 08 UTC till 15 kl. 10 UTC
Sikt: 5000 m

TAF: ORBI 141600Z 1418/1518 VRB03KT 2000 BR NSC BECMG 1418/1420 0500 FG VV002 BECMG 1508/1510 5000

Aktuella väderrapporter och prognoser från 4000 flygplatser (METAR- och TAF-rapporter).

De tillgängliga stationerna syns som gula och röda prickar på kartan.

För musen över prickarna för att se namnen på stationerna.

Klicka sedan för att få väderrapporter och prognoser.

För att ändra kartan: Klicka på de gröna knapparna med ett svart kors på för att zooma in; den gröna knappen med ett streck på för att zooma ut; eller på de gröna pilarna för angränsande kartor.


METAR-TAF: